Time;durP1;ratioP1;P1;durP2;ratioP2;P2;SDS_P1;SDS_P2;PMS_P1;PMS_P2;Temp;Humidity;BMP_temperature;BMP_pressure;BME280_temperature;BME280_humidity;BME280_pressure;Samples;Min_cycle;Max_cycle;Signal;HPM_P1;HPM_P2
2023/09/30 00:01:38;;;;;;;31.60;13.63;;;16.60;99.90;;;;;;4890308;29;20135;-68
2023/09/30 00:04:10;;;;;;;32.50;14.07;;;16.60;99.90;;;;;;4874339;29;20057;-68
2023/09/30 00:06:42;;;;;;;32.08;14.32;;;16.60;99.90;;;;;;4878725;29;20289;-68
2023/09/30 00:09:14;;;;;;;31.90;14.32;;;16.60;99.90;;;;;;4877687;29;20053;-69
2023/09/30 00:11:46;;;;;;;29.48;13.60;;;16.50;99.90;;;;;;4862282;29;20514;-69
2023/09/30 00:14:13;;;;;;;32.97;13.68;;;16.40;99.90;;;;;;4881272;29;20076;-70
2023/09/30 00:16:45;;;;;;;33.42;14.27;;;16.40;99.90;;;;;;4878776;29;20041;-69
2023/09/30 00:19:16;;;;;;;32.38;13.65;;;16.30;99.90;;;;;;4889753;29;20041;-69
2023/09/30 00:21:49;;;;;;;32.70;13.52;;;16.20;99.90;;;;;;4884691;29;20530;-69
2023/09/30 00:24:21;;;;;;;34.35;13.50;;;16.10;99.90;;;;;;4886352;29;20545;-68
2023/09/30 00:26:53;;;;;;;32.50;13.77;;;16.10;99.90;;;;;;4860364;29;20053;-69
2023/09/30 00:29:24;;;;;;;29.92;12.40;;;16.10;99.90;;;;;;4877129;29;20053;-69
2023/09/30 00:31:56;;;;;;;33.60;13.65;;;16.00;99.90;;;;;;4890767;29;20041;-69
2023/09/30 00:34:28;;;;;;;28.10;12.27;;;16.00;99.90;;;;;;4892345;29;20052;-69
2023/09/30 00:36:55;;;;;;;25.20;12.52;;;16.00;99.90;;;;;;4868715;29;20120;-70
2023/09/30 00:39:30;;;;;;;23.55;11.40;;;16.00;99.90;;;;;;4878902;29;20051;-68
2023/09/30 00:42:04;;;;;;;31.30;12.95;;;16.00;99.90;;;;;;4863782;29;20143;-68
2023/09/30 00:44:31;;;;;;;29.30;12.20;;;15.90;99.90;;;;;;4890744;29;20045;-69
2023/09/30 00:46:58;;;;;;;28.92;13.32;;;15.90;99.90;;;;;;4866770;29;20080;-69
2023/09/30 00:49:32;;;;;;;28.33;11.82;;;15.90;99.90;;;;;;4871071;29;20045;-68
2023/09/30 00:52:04;;;;;;;26.25;11.63;;;15.90;99.90;;;;;;4869530;29;20056;-67
2023/09/30 00:54:37;;;;;;;33.22;13.68;;;15.80;99.90;;;;;;4869981;29;20545;-70
2023/09/30 00:57:10;;;;;;;29.13;11.85;;;15.80;99.90;;;;;;4887716;29;20045;-68
2023/09/30 00:59:43;;;;;;;27.08;12.35;;;15.70;99.90;;;;;;4871766;29;20068;-67
2023/09/30 01:02:17;;;;;;;27.70;12.63;;;15.70;99.90;;;;;;4891850;29;20047;-69
2023/09/30 01:04:45;;;;;;;25.27;10.93;;;15.70;99.90;;;;;;4877853;29;20044;-69
2023/09/30 01:07:17;;;;;;;27.13;11.95;;;15.70;99.90;;;;;;4876283;29;20055;-68
2023/09/30 01:09:50;;;;;;;24.85;11.65;;;15.60;99.90;;;;;;4877647;29;20048;-69
2023/09/30 01:12:22;;;;;;;;;;;15.60;99.90;;;;;;4881537;29;20063;-69
2023/09/30 01:14:59;;;;;;;25.52;10.75;;;15.60;99.90;;;;;;4882009;29;19927;-69
2023/09/30 01:17:32;;;;;;;23.63;11.05;;;15.60;99.90;;;;;;4876603;29;20522;-70
2023/09/30 01:20:08;;;;;;;25.23;10.63;;;15.50;99.90;;;;;;4869048;29;20059;-69
2023/09/30 01:22:40;;;;;;;27.05;10.25;;;15.50;99.90;;;;;;4864140;29;20041;-70
2023/09/30 01:25:12;;;;;;;26.73;11.07;;;15.50;99.90;;;;;;4887974;29;20045;-70
2023/09/30 01:27:44;;;;;;;23.38;10.93;;;15.50;99.90;;;;;;4872621;29;20517;-68
2023/09/30 01:30:17;;;;;;;26.65;10.98;;;15.40;99.90;;;;;;4875260;29;20101;-69
2023/09/30 01:32:49;;;;;;;;;;;15.40;99.90;;;;;;4891559;29;20065;-68
2023/09/30 01:35:22;;;;;;;25.45;11.73;;;15.40;99.90;;;;;;4884985;29;19927;-69
2023/09/30 01:37:49;;;;;;;24.25;10.50;;;15.40;99.90;;;;;;4865052;29;20036;-69
2023/09/30 01:40:21;;;;;;;25.70;10.02;;;15.30;99.90;;;;;;4863711;29;20071;-69
2023/09/30 01:42:56;;;;;;;24.35;11.20;;;15.30;99.90;;;;;;4881165;29;20071;-70
2023/09/30 01:45:28;;;;;;;24.48;10.13;;;15.30;99.90;;;;;;4865924;29;20433;-69
2023/09/30 01:47:59;;;;;;;25.63;9.85;;;15.30;99.90;;;;;;4861096;29;20063;-70
2023/09/30 01:50:31;;;;;;;23.70;9.98;;;15.30;99.90;;;;;;4871993;29;20072;-70
2023/09/30 01:53:06;;;;;;;25.40;10.73;;;15.30;99.90;;;;;;4885305;29;20053;-69
2023/09/30 01:55:33;;;;;;;22.83;9.18;;;15.20;99.90;;;;;;4870541;29;20037;-69
2023/09/30 01:58:06;;;;;;;23.33;10.30;;;15.20;99.90;;;;;;4862145;29;20048;-69
2023/09/30 02:00:37;;;;;;;22.88;9.20;;;15.20;99.90;;;;;;4872963;29;20128;-68
2023/09/30 02:03:09;;;;;;;24.40;10.68;;;15.20;99.90;;;;;;4878280;29;20053;-70
2023/09/30 02:05:40;;;;;;;21.70;9.75;;;15.20;99.90;;;;;;4868470;29;20041;-68
2023/09/30 02:08:07;;;;;;;23.23;10.20;;;15.20;99.90;;;;;;4879267;29;20737;-68
2023/09/30 02:10:39;;;;;;;21.50;9.07;;;15.20;99.90;;;;;;4878949;29;20076;-70
2023/09/30 02:13:11;;;;;;;22.40;9.18;;;15.20;99.90;;;;;;4881041;29;20044;-69
2023/09/30 02:15:43;;;;;;;24.60;10.38;;;15.20;99.90;;;;;;4894560;29;20041;-69
2023/09/30 02:18:15;;;;;;;22.03;10.03;;;15.20;99.90;;;;;;4861495;29;20537;-68
2023/09/30 02:20:47;;;;;;;21.88;9.48;;;15.20;99.90;;;;;;4859979;29;20041;-69
2023/09/30 02:23:21;;;;;;;24.15;10.65;;;15.20;99.90;;;;;;4867490;29;20398;-69
2023/09/30 02:25:47;;;;;;;21.90;9.57;;;15.20;99.90;;;;;;4871765;29;20033;-70
2023/09/30 02:28:19;;;;;;;21.77;10.07;;;15.20;99.90;;;;;;4872428;29;20084;-68
2023/09/30 02:30:53;;;;;;;26.88;9.52;;;15.20;99.90;;;;;;4870627;29;20058;-68
2023/09/30 02:33:26;;;;;;;21.90;9.52;;;15.20;99.90;;;;;;4857595;29;20052;-69
2023/09/30 02:35:57;;;;;;;26.57;10.40;;;15.20;99.90;;;;;;4886925;29;20509;-69
2023/09/30 02:38:29;;;;;;;24.90;10.40;;;15.20;99.90;;;;;;4876491;29;20295;-69
2023/09/30 02:41:02;;;;;;;20.00;8.88;;;15.10;99.90;;;;;;4866455;29;20613;-67
2023/09/30 02:43:29;;;;;;;21.45;9.65;;;15.10;99.90;;;;;;4886843;29;20036;-68
2023/09/30 02:46:01;;;;;;;20.63;9.43;;;15.00;99.90;;;;;;4878189;29;20053;-69
2023/09/30 02:48:33;;;;;;;20.63;9.52;;;15.00;99.90;;;;;;4871340;29;20051;-70
2023/09/30 02:51:00;;;;;;;20.67;9.40;;;15.00;99.90;;;;;;4875665;29;20045;-68
2023/09/30 02:53:32;;;;;;;21.00;9.13;;;15.00;99.90;;;;;;4883455;29;20053;-68
2023/09/30 02:56:04;;;;;;;20.15;8.50;;;15.00;99.90;;;;;;4873196;29;20402;-67
2023/09/30 02:58:38;;;;;;;23.40;9.27;;;15.00;99.90;;;;;;4872472;29;20047;-69
2023/09/30 03:01:16;;;;;;;17.03;8.47;;;15.00;99.90;;;;;;4869043;29;20544;-70
2023/09/30 03:03:48;;;;;;;23.00;9.77;;;14.90;99.90;;;;;;4867932;29;20304;-69
2023/09/30 03:06:15;;;;;;;19.10;7.75;;;14.90;99.90;;;;;;4878863;29;20460;-70
2023/09/30 03:08:48;;;;;;;21.95;8.25;;;14.90;99.90;;;;;;4864590;29;20048;-69
2023/09/30 03:11:15;;;;;;;19.15;8.73;;;14.80;99.90;;;;;;4887832;29;20136;-68
2023/09/30 03:13:42;;;;;;;19.92;8.50;;;14.80;99.90;;;;;;4878464;29;20551;-68
2023/09/30 03:16:14;;;;;;;17.00;7.90;;;14.80;99.90;;;;;;4878365;29;20055;-69
2023/09/30 03:18:46;;;;;;;19.70;7.43;;;14.80;99.90;;;;;;4873254;29;20660;-70
2023/09/30 03:21:18;;;;;;;18.85;8.40;;;14.80;99.90;;;;;;4893079;29;20581;-69
2023/09/30 03:23:50;;;;;;;17.25;7.15;;;14.70;99.90;;;;;;4874565;29;20049;-68
2023/09/30 03:26:17;;;;;;;20.25;7.88;;;14.70;99.90;;;;;;4887643;29;20462;-68
2023/09/30 03:28:50;;;;;;;16.70;7.55;;;14.70;99.90;;;;;;4854938;29;20059;-68
2023/09/30 03:31:22;;;;;;;16.33;7.70;;;14.70;99.90;;;;;;4886759;29;20051;-68
2023/09/30 03:33:54;;;;;;;19.48;7.82;;;14.60;99.90;;;;;;4888999;29;20120;-69
2023/09/30 03:36:26;;;;;;;17.40;7.03;;;14.60;99.90;;;;;;4870286;29;20067;-69
2023/09/30 03:39:05;;;;;;;17.58;7.90;;;14.60;99.90;;;;;;4891948;29;20049;-68
2023/09/30 03:41:36;;;;;;;17.23;7.45;;;14.50;99.90;;;;;;4880492;29;20069;-70
2023/09/30 03:44:04;;;;;;;19.98;7.07;;;14.50;99.90;;;;;;4862469;29;20044;-68
2023/09/30 03:46:36;;;;;;;20.83;8.18;;;14.50;99.90;;;;;;4876608;29;20739;-70
2023/09/30 03:49:08;;;;;;;19.58;8.50;;;14.50;99.90;;;;;;4887798;29;20128;-69
2023/09/30 03:51:41;;;;;;;18.90;8.05;;;14.40;99.90;;;;;;4881166;29;20051;-68
2023/09/30 03:54:12;;;;;;;16.80;8.57;;;14.40;99.90;;;;;;4882181;29;20053;-69
2023/09/30 03:56:46;;;;;;;18.25;7.65;;;14.40;99.90;;;;;;4889371;29;20044;-67
2023/09/30 03:59:19;;;;;;;18.63;8.13;;;14.40;99.90;;;;;;4876325;29;20055;-68
2023/09/30 04:01:51;;;;;;;17.50;6.82;;;14.40;99.90;;;;;;4886831;29;20051;-68
2023/09/30 04:04:23;;;;;;;17.30;7.80;;;14.30;99.90;;;;;;4878753;29;20056;-69
2023/09/30 04:06:55;;;;;;;19.30;7.85;;;14.30;99.90;;;;;;4889646;29;20048;-68
2023/09/30 04:09:26;;;;;;;14.27;6.88;;;14.30;99.90;;;;;;4865111;29;20052;-69
2023/09/30 04:11:53;;;;;;;16.25;7.43;;;14.30;99.90;;;;;;4887037;29;20132;-68
2023/09/30 04:14:25;;;;;;;17.90;7.68;;;14.30;99.90;;;;;;4878993;29;20055;-68
2023/09/30 04:16:58;;;;;;;16.27;6.88;;;14.30;99.90;;;;;;4877128;29;20093;-69
2023/09/30 04:19:25;;;;;;;17.75;6.68;;;14.30;99.90;;;;;;4860757;29;20191;-68
2023/09/30 04:21:57;;;;;;;16.70;7.40;;;14.20;99.90;;;;;;4860510;29;20053;-70
2023/09/30 04:24:29;;;;;;;16.80;6.88;;;14.20;99.90;;;;;;4881593;29;20047;-70
2023/09/30 04:27:04;;;;;;;14.50;6.07;;;14.30;99.90;;;;;;4889552;29;20143;-69
2023/09/30 04:29:36;;;;;;;16.50;6.93;;;14.30;99.90;;;;;;4889355;29;20041;-68
2023/09/30 04:32:08;;;;;;;16.23;6.07;;;14.30;99.90;;;;;;4892833;29;20052;-68
2023/09/30 04:34:40;;;;;;;14.23;5.78;;;14.30;99.90;;;;;;4874636;29;20417;-68
2023/09/30 04:37:15;;;;;;;13.10;6.28;;;14.30;99.90;;;;;;4891172;29;20052;-67
2023/09/30 04:39:47;;;;;;;13.35;6.07;;;14.30;99.90;;;;;;4892857;29;20055;-68
2023/09/30 04:42:19;;;;;;;16.20;6.72;;;14.30;99.90;;;;;;4895457;29;20436;-68
2023/09/30 04:44:51;;;;;;;17.13;7.18;;;14.30;99.90;;;;;;4880815;29;20052;-69
2023/09/30 04:47:23;;;;;;;12.00;5.32;;;14.30;99.90;;;;;;4891015;29;20040;-68
2023/09/30 04:49:58;;;;;;;14.68;6.35;;;14.30;99.90;;;;;;4887144;29;20040;-70
2023/09/30 04:52:30;;;;;;;13.23;5.85;;;14.30;99.90;;;;;;4894625;29;20696;-70
2023/09/30 04:55:05;;;;;;;15.25;6.57;;;14.20;99.90;;;;;;4880549;29;20418;-70
2023/09/30 04:57:37;;;;;;;16.38;5.75;;;14.20;99.90;;;;;;4873079;29;20040;-67
2023/09/30 05:00:11;;;;;;;15.98;6.63;;;14.20;99.90;;;;;;4885070;29;20510;-68
2023/09/30 05:02:46;;;;;;;15.38;6.40;;;14.20;99.90;;;;;;4876514;29;20033;-68
2023/09/30 05:05:14;;;;;;;17.77;7.07;;;14.20;99.90;;;;;;4892450;29;20047;-68
2023/09/30 05:07:47;;;;;;;27.63;11.15;;;14.20;99.90;;;;;;4895476;29;20037;-68
2023/09/30 05:10:16;;;;;;;24.10;10.15;;;14.10;99.90;;;;;;4894722;29;20048;-69
2023/09/30 05:12:45;;;;;;;26.52;10.50;;;14.00;99.90;;;;;;4892503;29;20518;-68
2023/09/30 05:15:19;;;;;;;21.42;10.63;;;13.90;99.90;;;;;;4865076;29;20421;-68
2023/09/30 05:17:51;;;;;;;20.67;9.18;;;13.70;99.90;;;;;;4878868;29;20045;-67
2023/09/30 05:20:24;;;;;;;19.98;9.27;;;13.70;99.90;;;;;;4881507;29;20069;-68
2023/09/30 05:22:56;;;;;;;22.95;9.32;;;13.70;99.90;;;;;;4867133;29;20656;-69
2023/09/30 05:25:27;;;;;;;23.30;10.40;;;13.60;99.90;;;;;;4885310;29;20049;-69
2023/09/30 05:27:59;;;;;;;22.13;10.32;;;13.60;99.90;;;;;;4860824;29;20060;-68
2023/09/30 05:30:33;;;;;;;19.42;9.18;;;13.50;99.90;;;;;;4882796;29;20048;-70
2023/09/30 05:33:04;;;;;;;20.70;8.77;;;13.40;99.90;;;;;;4891659;29;20049;-69
2023/09/30 05:35:36;;;;;;;18.58;8.45;;;13.30;99.90;;;;;;4892962;29;20780;-69
2023/09/30 05:38:08;;;;;;;17.02;8.20;;;13.30;99.90;;;;;;4878264;29;20049;-70
2023/09/30 05:40:41;;;;;;;19.90;9.02;;;13.30;99.90;;;;;;4878989;29;20055;-68
2023/09/30 05:43:14;;;;;;;18.50;7.68;;;13.30;99.90;;;;;;4879612;29;20041;-68
2023/09/30 05:45:49;;;;;;;19.75;8.90;;;13.30;99.90;;;;;;4866165;29;20053;-68
2023/09/30 05:48:21;;;;;;;18.80;8.45;;;13.40;99.90;;;;;;4893607;29;20123;-69
2023/09/30 05:50:53;;;;;;;21.67;8.23;;;13.40;99.90;;;;;;4878643;29;20053;-69
2023/09/30 05:53:25;;;;;;;17.17;7.50;;;13.40;99.90;;;;;;4865650;29;20056;-69
2023/09/30 05:55:52;;;;;;;14.43;7.15;;;13.40;99.90;;;;;;4890179;29;20104;-69
2023/09/30 05:58:24;;;;;;;14.65;6.95;;;13.50;99.90;;;;;;4887961;29;20041;-69
2023/09/30 06:00:55;;;;;;;16.55;8.40;;;13.60;99.90;;;;;;4892124;29;20041;-69
2023/09/30 06:03:29;;;;;;;16.88;6.93;;;13.60;99.90;;;;;;4881077;29;20045;-70
2023/09/30 06:05:56;;;;;;;16.23;7.63;;;13.70;99.90;;;;;;4894745;29;20048;-68
2023/09/30 06:08:23;;;;;;;14.63;7.10;;;13.70;99.90;;;;;;4874357;29;20040;-69
2023/09/30 06:10:55;;;;;;;20.20;8.35;;;13.80;99.90;;;;;;4873516;29;20041;-70
2023/09/30 06:13:27;;;;;;;19.02;7.95;;;13.90;99.90;;;;;;4854582;29;20143;-70
2023/09/30 06:15:59;;;;;;;17.05;7.55;;;13.90;99.90;;;;;;4893959;29;20053;-69
2023/09/30 06:18:31;;;;;;;17.65;8.00;;;14.00;99.90;;;;;;4891145;29;20033;-68
2023/09/30 06:21:03;;;;;;;21.45;9.15;;;14.00;99.90;;;;;;4873931;29;20041;-71
2023/09/30 06:23:31;;;;;;;15.65;7.90;;;14.10;99.90;;;;;;4885179;29;20089;-71
2023/09/30 06:26:03;;;;;;;16.10;7.80;;;14.10;99.90;;;;;;4878452;29;20076;-70
2023/09/30 06:28:40;;;;;;;20.90;7.78;;;14.20;99.90;;;;;;4882013;29;20053;-69
2023/09/30 06:31:08;;;;;;;15.13;6.93;;;14.30;99.90;;;;;;4890580;29;20097;-68
2023/09/30 06:33:40;;;;;;;17.55;7.55;;;14.30;99.90;;;;;;4890216;29;20517;-69
2023/09/30 06:36:13;;;;;;;15.02;6.90;;;14.30;99.90;;;;;;4873723;29;20051;-69
2023/09/30 06:38:48;;;;;;;14.23;7.00;;;14.40;99.90;;;;;;4872072;29;20051;-69
2023/09/30 06:41:19;;;;;;;15.05;6.70;;;14.50;99.90;;;;;;4876888;29;20054;-68
2023/09/30 06:43:51;;;;;;;25.02;8.05;;;14.50;99.90;;;;;;4893249;29;20047;-68
2023/09/30 06:46:23;;;;;;;14.32;6.25;;;14.60;99.90;;;;;;4878198;29;20102;-67
2023/09/30 06:48:55;;;;;;;13.77;6.95;;;14.70;99.90;;;;;;4891797;29;20052;-68
2023/09/30 06:51:27;;;;;;;16.30;6.85;;;14.90;99.90;;;;;;4881693;29;20144;-70
2023/09/30 06:53:54;;;;;;;15.43;6.82;;;15.10;99.90;;;;;;4875303;29;20041;-67
2023/09/30 06:56:22;;;;;;;16.70;6.63;;;15.20;99.90;;;;;;4863656;29;20719;-68
2023/09/30 06:58:48;;;;;;;15.65;6.32;;;15.30;99.90;;;;;;4886285;29;20110;-67
2023/09/30 07:01:20;;;;;;;14.60;6.60;;;15.40;99.90;;;;;;4891521;29;20127;-67
2023/09/30 07:03:52;;;;;;;16.15;6.72;;;15.50;99.90;;;;;;4890060;29;20682;-67
2023/09/30 07:06:25;;;;;;;13.55;6.22;;;15.60;99.90;;;;;;4876841;29;20056;-67
2023/09/30 07:08:56;;;;;;;11.52;6.38;;;15.70;99.90;;;;;;4891520;29;20052;-67
2023/09/30 07:11:29;;;;;;;17.00;7.43;;;15.60;99.90;;;;;;4885067;29;20079;-68
2023/09/30 07:14:01;;;;;;;17.10;7.03;;;15.50;99.90;;;;;;4888210;29;20425;-68
2023/09/30 07:16:33;;;;;;;13.27;6.50;;;15.40;99.90;;;;;;4878637;29;20433;-67
2023/09/30 07:19:05;;;;;;;16.20;7.80;;;15.40;99.90;;;;;;4884389;29;20646;-68
2023/09/30 07:21:37;;;;;;;16.38;6.85;;;15.30;99.90;;;;;;4874346;29;20053;-68
2023/09/30 07:24:10;;;;;;;13.48;6.55;;;15.40;99.90;;;;;;4880512;29;20045;-69
2023/09/30 07:26:37;;;;;;;15.35;7.25;;;15.50;99.90;;;;;;4891354;29;20052;-69
2023/09/30 07:29:09;;;;;;;16.08;6.78;;;15.70;99.90;;;;;;4885602;29;20049;-68
2023/09/30 07:31:41;;;;;;;15.95;7.07;;;15.80;99.90;;;;;;4895722;29;20047;-68
2023/09/30 07:34:13;;;;;;;15.32;7.13;;;15.80;99.90;;;;;;4892854;29;20052;-67
2023/09/30 07:36:40;;;;;;;19.45;8.63;;;15.90;99.90;;;;;;4894517;29;20681;-67
2023/09/30 07:39:12;;;;;;;14.55;7.22;;;15.90;99.90;;;;;;4869965;29;20072;-66
2023/09/30 07:41:44;;;;;;;16.02;7.50;;;15.90;99.90;;;;;;4884433;29;20053;-67
2023/09/30 07:44:11;;;;;;;16.50;8.23;;;16.00;99.90;;;;;;4857721;29;20051;-67
2023/09/30 07:46:43;;;;;;;15.85;7.03;;;16.00;99.90;;;;;;4880302;29;20051;-67
2023/09/30 07:49:15;;;;;;;15.93;7.70;;;16.00;99.90;;;;;;4879572;29;20058;-66
2023/09/30 07:51:47;;;;;;;16.30;7.63;;;15.90;99.90;;;;;;4891119;29;20071;-67
2023/09/30 07:54:14;;;;;;;16.45;7.18;;;15.90;99.90;;;;;;4896212;29;20062;-68
2023/09/30 07:56:46;;;;;;;16.52;7.78;;;15.90;99.90;;;;;;4890855;29;20044;-69
2023/09/30 07:59:18;;;;;;;18.85;8.15;;;16.00;99.90;;;;;;4889668;29;20089;-69
2023/09/30 08:01:50;;;;;;;16.77;7.47;;;16.00;99.90;;;;;;4879588;29;20048;-69
2023/09/30 08:04:23;;;;;;;15.18;7.57;;;16.10;99.90;;;;;;4888046;29;20045;-66
2023/09/30 08:06:55;;;;;;;14.18;7.57;;;16.10;99.90;;;;;;4892277;29;20052;-68
2023/09/30 08:09:27;;;;;;;14.23;7.07;;;16.20;99.90;;;;;;4890783;29;20051;-69
2023/09/30 08:11:54;;;;;;;15.10;6.75;;;16.20;99.90;;;;;;4877319;29;20127;-67
2023/09/30 08:14:26;;;;;;;13.05;6.97;;;16.20;99.90;;;;;;4891164;29;20059;-68
2023/09/30 08:16:58;;;;;;;12.73;6.25;;;16.20;99.90;;;;;;4888857;29;20056;-70
2023/09/30 08:19:30;;;;;;;13.45;7.20;;;16.20;99.90;;;;;;4884445;29;20112;-69
2023/09/30 08:22:03;;;;;;;11.77;5.72;;;16.30;99.90;;;;;;4878220;29;20049;-70
2023/09/30 08:24:35;;;;;;;11.45;6.63;;;16.30;99.90;;;;;;4887797;29;20080;-68
2023/09/30 08:27:08;;;;;;;13.07;7.07;;;16.30;99.90;;;;;;4873793;29;20536;-69
2023/09/30 08:29:38;;;;;;;12.38;6.55;;;16.30;99.90;;;;;;4875555;29;20117;-68
2023/09/30 08:32:10;;;;;;;11.98;6.93;;;16.30;99.90;;;;;;4861352;29;20744;-68
2023/09/30 08:34:42;;;;;;;11.27;6.78;;;16.30;99.90;;;;;;4889845;29;20047;-68
2023/09/30 08:37:14;;;;;;;13.25;6.93;;;16.40;99.90;;;;;;4866872;29;20143;-69
2023/09/30 08:39:46;;;;;;;15.80;7.07;;;16.50;99.90;;;;;;4869928;29;20528;-70
2023/09/30 08:42:19;;;;;;;10.77;5.97;;;16.50;99.90;;;;;;4868351;29;20052;-70
2023/09/30 08:44:54;;;;;;;10.18;5.95;;;16.70;99.90;;;;;;4868098;29;20050;-68
2023/09/30 08:47:22;;;;;;;16.42;6.82;;;16.70;99.90;;;;;;4868315;29;20521;-69
2023/09/30 08:49:57;;;;;;;11.95;6.30;;;16.80;99.90;;;;;;4880475;29;20064;-68
2023/09/30 08:52:25;;;;;;;9.88;6.28;;;16.80;99.90;;;;;;4884542;29;20414;-68
2023/09/30 08:54:57;;;;;;;11.10;5.85;;;16.80;99.90;;;;;;4887359;29;20045;-69
2023/09/30 08:57:27;;;;;;;11.63;6.45;;;16.80;99.90;;;;;;4880678;29;20049;-68
2023/09/30 09:00:00;;;;;;;12.27;6.60;;;16.90;99.90;;;;;;4875837;29;20049;-70
2023/09/30 09:02:34;;;;;;;12.50;5.80;;;16.90;99.90;;;;;;4865576;29;20045;-70
2023/09/30 09:05:07;;;;;;;15.90;6.82;;;16.90;99.90;;;;;;4866977;29;20045;-68
2023/09/30 09:07:40;;;;;;;12.88;6.10;;;16.80;99.90;;;;;;4888545;29;20052;-69
2023/09/30 09:10:15;;;;;;;12.35;5.40;;;16.90;99.90;;;;;;4876813;29;20147;-69
2023/09/30 09:12:42;;;;;;;12.00;6.30;;;16.90;99.90;;;;;;4887737;29;20059;-68
2023/09/30 09:15:23;;;;;;;11.15;6.00;;;17.00;99.90;;;;;;4877121;29;20133;-70
2023/09/30 09:17:55;;;;;;;11.68;5.53;;;17.10;99.90;;;;;;4863989;29;20049;-67
2023/09/30 09:20:25;;;;;;;10.00;5.72;;;17.10;99.90;;;;;;4891613;29;20037;-68
2023/09/30 09:22:55;;;;;;;9.75;5.28;;;17.10;99.90;;;;;;4885636;29;20533;-68
2023/09/30 09:25:28;;;;;;;10.93;5.43;;;17.00;99.90;;;;;;4865445;29;20051;-68
2023/09/30 09:27:55;;;;;;;10.82;5.55;;;17.00;99.90;;;;;;4880179;29;20060;-69
2023/09/30 09:30:28;;;;;;;12.82;6.13;;;17.10;99.90;;;;;;4880584;29;20044;-68
2023/09/30 09:33:05;;;;;;;12.35;6.45;;;17.10;99.90;;;;;;4883634;29;20053;-70
2023/09/30 09:35:37;;;;;;;13.77;6.68;;;17.20;99.90;;;;;;4884241;29;20379;-69
2023/09/30 09:38:09;;;;;;;12.48;6.30;;;17.30;99.90;;;;;;4886631;29;20104;-70
2023/09/30 09:40:41;;;;;;;12.35;6.60;;;17.40;99.90;;;;;;4886866;29;20096;-70
2023/09/30 09:43:15;;;;;;;9.15;5.28;;;17.50;99.90;;;;;;4869513;29;20042;-69
2023/09/30 09:45:47;;;;;;;13.23;6.35;;;17.70;99.90;;;;;;4891335;29;20048;-69
2023/09/30 09:48:19;;;;;;;12.77;6.18;;;17.80;99.90;;;;;;4887344;29;20267;-70
2023/09/30 09:50:51;;;;;;;16.58;7.38;;;17.90;99.90;;;;;;4867286;29;20049;-70
2023/09/30 09:53:25;;;;;;;11.70;6.65;;;17.90;99.90;;;;;;4882446;29;20076;-69
2023/09/30 09:55:59;;;;;;;14.70;6.53;;;17.90;99.90;;;;;;4896957;29;20048;-67
2023/09/30 09:58:34;;;;;;;12.23;5.80;;;17.90;99.90;;;;;;4868665;29;20051;-70
2023/09/30 10:01:02;;;;;;;11.70;5.68;;;17.90;99.90;;;;;;4891026;29;20051;-69
2023/09/30 10:03:34;;;;;;;13.30;6.83;;;17.80;99.90;;;;;;4875020;29;20059;-68
2023/09/30 10:06:08;;;;;;;11.52;7.07;;;17.70;99.90;;;;;;4891298;29;20037;-70
2023/09/30 10:08:44;;;;;;;14.52;6.70;;;17.70;99.90;;;;;;4891945;29;20045;-70
2023/09/30 10:11:18;;;;;;;11.63;6.25;;;17.80;99.90;;;;;;4887918;29;20513;-68
2023/09/30 10:13:55;;;;;;;14.48;6.50;;;17.80;99.90;;;;;;4888761;29;20053;-67
2023/09/30 10:16:36;;;;;;;13.02;5.95;;;17.90;99.90;;;;;;4880395;29;20041;-70
2023/09/30 10:19:32;;;;;;;15.48;7.72;;;17.90;99.90;;;;;;4887943;29;20072;-69
2023/09/30 10:22:21;;;;;;;14.07;6.70;;;18.00;99.90;;;;;;4876220;29;20056;-69
2023/09/30 10:24:59;;;;;;;10.55;5.80;;;18.10;99.90;;;;;;4881540;29;20041;-70
2023/09/30 10:27:32;;;;;;;10.50;6.57;;;18.20;99.90;;;;;;4877089;29;20053;-68
2023/09/30 10:30:10;;;;;;;14.38;6.65;;;18.10;99.90;;;;;;4880592;29;20053;-70
2023/09/30 10:32:51;;;;;;;14.25;6.60;;;18.20;99.90;;;;;;4880998;29;20080;-69
2023/09/30 10:35:32;;;;;;;13.55;7.22;;;18.20;99.90;;;;;;4884890;29;20525;-70
2023/09/30 10:38:23;;;;;;;14.20;6.50;;;18.30;99.90;;;;;;4887719;29;20072;-69
2023/09/30 10:40:55;;;;;;;13.95;6.15;;;18.40;99.90;;;;;;4885756;29;20118;-69
2023/09/30 10:43:30;;;;;;;13.63;7.15;;;18.40;99.90;;;;;;4888586;29;20040;-68
2023/09/30 10:46:07;;;;;;;13.80;6.65;;;18.40;99.90;;;;;;4868680;29;20455;-69
2023/09/30 10:48:40;;;;;;;12.88;6.72;;;18.40;99.90;;;;;;4890033;29;20040;-69
2023/09/30 10:51:14;;;;;;;15.18;7.20;;;18.50;99.90;;;;;;4891414;29;20036;-69
2023/09/30 10:54:00;;;;;;;12.32;6.78;;;18.40;99.90;;;;;;4875858;29;20471;-70
2023/09/30 10:56:33;;;;;;;11.10;6.32;;;18.50;99.90;;;;;;4876103;29;20132;-68
2023/09/30 10:59:05;;;;;;;15.38;6.82;;;18.50;99.90;;;;;;4879001;29;20422;-68
2023/09/30 11:01:38;;;;;;;11.73;6.53;;;18.60;99.90;;;;;;4880460;29;20037;-68
2023/09/30 11:04:11;;;;;;;13.32;6.65;;;18.70;99.90;;;;;;4880848;29;20524;-68
2023/09/30 11:06:43;;;;;;;16.70;6.82;;;18.80;99.90;;;;;;4876003;29;20056;-67
2023/09/30 11:09:20;;;;;;;14.93;6.65;;;18.80;99.90;;;;;;4877943;29;20152;-70
2023/09/30 11:11:53;;;;;;;11.55;5.95;;;18.80;99.90;;;;;;4889651;29;20502;-68
2023/09/30 11:14:26;;;;;;;14.40;6.72;;;18.80;99.90;;;;;;4888418;29;20041;-68
2023/09/30 11:17:00;;;;;;;12.70;6.75;;;18.90;99.90;;;;;;4888176;29;20044;-67
2023/09/30 11:19:45;;;;;;;14.13;7.45;;;18.90;99.90;;;;;;4889501;29;20120;-68
2023/09/30 11:22:12;;;;;;;14.15;7.28;;;19.00;99.90;;;;;;4886377;29;20108;-70
2023/09/30 11:24:46;;;;;;;11.07;6.30;;;19.20;99.90;;;;;;4889047;29;20090;-68
2023/09/30 11:27:26;;;;;;;15.88;7.03;;;19.30;99.90;;;;;;4880994;29;20041;-68
2023/09/30 11:29:58;;;;;;;17.73;7.97;;;19.30;99.90;;;;;;4861711;29;20667;-69
2023/09/30 11:32:30;;;;;;;10.93;6.50;;;19.40;99.90;;;;;;4884854;29;20056;-67
2023/09/30 11:34:57;;;;;;;13.95;7.35;;;19.40;99.90;;;;;;4887386;29;20045;-67
2023/09/30 11:37:33;;;;;;;14.60;7.38;;;19.50;99.90;;;;;;4881193;29;20088;-68
2023/09/30 11:40:15;;;;;;;18.48;8.82;;;19.50;99.90;;;;;;4890880;29;20048;-67
2023/09/30 11:43:11;;;;;;;15.27;7.30;;;19.50;99.90;;;;;;4878925;29;20040;-69
2023/09/30 11:45:38;;;;;;;14.63;7.57;;;19.50;99.90;;;;;;4878015;29;20476;-69
2023/09/30 11:48:19;;;;;;;16.85;7.43;;;19.50;99.90;;;;;;4870953;29;20053;-68
2023/09/30 11:50:52;;;;;;;18.10;8.68;;;19.60;99.90;;;;;;4889663;29;20410;-69
2023/09/30 11:53:25;;;;;;;14.57;7.55;;;19.80;99.90;;;;;;4887692;29;20057;-69
2023/09/30 11:55:59;;;;;;;15.27;7.97;;;20.00;99.90;;;;;;4875705;29;20139;-69
2023/09/30 11:58:32;;;;;;;17.30;7.68;;;20.20;99.90;;;;;;4876142;29;20506;-70
2023/09/30 12:00:59;;;;;;;14.85;7.55;;;20.30;99.90;;;;;;4876327;29;20500;-67
2023/09/30 12:03:27;;;;;;;14.40;7.25;;;20.30;99.90;;;;;;4861416;29;20051;-69
2023/09/30 12:06:00;;;;;;;17.27;7.70;;;20.40;99.90;;;;;;4884613;29;20545;-70
2023/09/30 12:08:32;;;;;;;13.57;7.30;;;20.50;99.90;;;;;;4892129;29;20128;-69
2023/09/30 12:11:04;;;;;;;15.50;7.97;;;20.50;99.90;;;;;;4890824;29;20041;-68
2023/09/30 12:13:31;;;;;;;17.35;8.63;;;20.50;99.90;;;;;;4888764;29;20549;-68
2023/09/30 12:16:03;;;;;;;17.50;8.63;;;20.30;99.90;;;;;;4871954;29;20045;-69
2023/09/30 12:18:35;;;;;;;16.58;8.05;;;20.20;99.90;;;;;;4884720;29;20506;-67
2023/09/30 12:21:11;;;;;;;17.13;8.75;;;20.10;99.90;;;;;;4883175;29;20084;-68
2023/09/30 12:23:43;;;;;;;15.60;7.53;;;20.10;99.90;;;;;;4883104;29;20083;-70
2023/09/30 12:26:11;;;;;;;16.35;8.35;;;20.20;99.90;;;;;;4864898;29;20048;-69
2023/09/30 12:28:43;;;;;;;17.30;8.07;;;20.40;99.90;;;;;;4879540;29;20044;-69
2023/09/30 12:31:16;;;;;;;15.13;7.20;;;20.50;99.90;;;;;;4876114;29;20051;-68
2023/09/30 12:33:50;;;;;;;16.05;8.10;;;20.60;99.90;;;;;;4878857;29;20045;-69
2023/09/30 12:36:22;;;;;;;19.25;8.15;;;20.70;99.90;;;;;;4893896;29;20051;-69
2023/09/30 12:38:54;;;;;;;15.80;8.38;;;20.70;99.90;;;;;;4876054;29;20045;-68
2023/09/30 12:41:21;;;;;;;17.38;8.65;;;20.70;99.90;;;;;;4885953;29;20060;-68
2023/09/30 12:43:48;;;;;;;15.75;8.90;;;20.70;99.90;;;;;;4884953;29;20152;-69
2023/09/30 12:46:20;;;;;;;18.73;8.38;;;20.60;99.90;;;;;;4868213;29;20045;-68
2023/09/30 12:48:52;;;;;;;14.57;6.90;;;20.60;99.90;;;;;;4886032;29;20052;-67
2023/09/30 12:51:24;;;;;;;17.67;9.52;;;20.50;99.90;;;;;;4869034;29;20044;-67
2023/09/30 12:53:51;;;;;;;13.07;7.30;;;20.50;99.90;;;;;;4887570;29;20404;-69
2023/09/30 12:56:24;;;;;;;15.82;7.85;;;20.40;99.90;;;;;;4879804;29;20048;-68
2023/09/30 12:58:51;;;;;;;16.73;7.82;;;20.40;99.90;;;;;;4893619;29;20119;-69
2023/09/30 13:01:23;;;;;;;17.08;8.27;;;20.40;99.90;;;;;;4863909;29;20049;-68